Ophir, Colorado
Current Conditions -  °F | °C
As of 2:55 AM on Thursday 23 Oct 2014 (Local Time) from KTEX Reporting Station
Clear Clear  
Wind Chill: 34°   Ceiling: Unl
Heat Index: 38°   Visibility: 10mi
Dew Point: 33°   Wind: 6mph
Humidity: 80%   Direction: 140°SE
Pressure: 30.4"   Gusts: NA
Location:  37.86°N, 107.83°W
Report Text: KTEX 230855Z AUTO 14005KT 10SM CLR 04/00 A3040 RMK AO2 T00350003
Loading
Personal Weather Stations






























Interactive Weather Map
Tropical Storm Tracking
New forecast layout! Learn more

10-Day Weather Forecast

Advertisements
Track Severe Weather on mobile